createdAt,value
2024-02-11T00:02:20.214Z,82.65
2024-02-11T00:04:47.604Z,84.10
2024-02-11T00:07:15.204Z,83.93
2024-02-11T00:09:42.740Z,84.50
2024-02-11T00:12:10.587Z,85.75
2024-02-11T00:14:37.987Z,85.76
2024-02-11T00:17:05.559Z,86.39
2024-02-11T00:19:34.130Z,86.86
2024-02-11T00:22:03.242Z,86.54
2024-02-11T00:24:31.195Z,86.42
2024-02-11T00:26:58.821Z,86.37
2024-02-11T00:29:26.212Z,86.36
2024-02-11T00:31:53.634Z,87.58
2024-02-11T00:34:20.957Z,88.63
2024-02-11T00:36:50.919Z,88.65
2024-02-11T00:39:18.216Z,89.46
2024-02-11T00:41:46.702Z,90.06
2024-02-11T00:44:14.203Z,91.86
2024-02-11T00:46:41.480Z,92.30
2024-02-11T00:49:10.128Z,92.23
2024-02-11T00:51:37.654Z,95.03
2024-02-11T00:54:06.018Z,94.38
2024-02-11T00:56:33.504Z,97.10
2024-02-11T00:59:00.854Z,100.00
2024-02-11T01:01:28.260Z,100.00
2024-02-11T01:03:58.209Z,100.00
2024-02-11T01:06:26.858Z,100.00
2024-02-11T01:08:54.579Z,100.00
2024-02-11T01:11:22.143Z,100.00
2024-02-11T01:13:50.430Z,100.00
2024-02-11T01:16:17.867Z,100.00
2024-02-11T01:18:47.791Z,100.00
2024-02-11T01:21:15.390Z,100.00
2024-02-11T01:23:42.700Z,100.00
2024-02-11T01:26:10.086Z,100.00
2024-02-11T01:28:37.504Z,100.00
2024-02-11T01:31:04.927Z,100.00
2024-02-11T01:33:32.346Z,100.00
2024-02-11T01:35:59.731Z,100.00
2024-02-11T01:38:26.981Z,100.00
2024-02-11T01:40:54.312Z,100.00
2024-02-11T01:43:22.997Z,100.00
2024-02-11T01:45:50.751Z,100.00
2024-02-11T01:48:18.514Z,100.00
2024-02-11T01:50:46.682Z,100.00
2024-02-11T01:53:14.552Z,100.00
2024-02-11T01:55:43.990Z,100.00
2024-02-11T01:58:12.478Z,100.00
2024-02-11T02:00:41.387Z,100.00
2024-02-11T02:03:10.378Z,100.00
2024-02-11T02:05:39.109Z,100.00
2024-02-11T02:08:10.164Z,100.00
2024-02-11T02:10:38.137Z,100.00
2024-02-11T02:13:05.566Z,100.00
2024-02-11T02:15:32.940Z,100.00
2024-02-11T02:18:00.326Z,100.00
2024-02-11T02:20:27.622Z,100.00
2024-02-11T02:22:55.389Z,100.00
2024-02-11T02:25:22.717Z,100.00
2024-02-11T02:27:50.014Z,100.00
2024-02-11T02:30:18.300Z,100.00
2024-02-11T02:32:45.643Z,100.00
2024-02-11T02:35:23.330Z,100.00
2024-02-11T02:37:55.382Z,100.00
2024-02-11T02:40:28.509Z,100.00
2024-02-11T02:42:58.799Z,100.00
2024-02-11T02:45:27.198Z,100.00
2024-02-11T02:47:55.380Z,100.00
2024-02-11T02:50:23.299Z,100.00
2024-02-11T02:52:50.733Z,100.00
2024-02-11T02:55:19.317Z,100.00
2024-02-11T02:57:47.043Z,100.00
2024-02-11T03:03:12.144Z,100.00
2024-02-11T03:05:45.457Z,100.00
2024-02-11T03:08:14.310Z,100.00
2024-02-11T03:10:41.710Z,100.00
2024-02-11T03:13:09.305Z,100.00
2024-02-11T03:15:36.768Z,100.00
2024-02-11T03:18:04.719Z,100.00
2024-02-11T03:20:32.135Z,100.00
2024-02-11T03:22:59.460Z,100.00
2024-02-11T03:25:26.719Z,100.00
2024-02-11T03:27:56.682Z,100.00
2024-02-11T03:30:24.315Z,100.00
2024-02-11T03:32:52.931Z,100.00
2024-02-11T03:35:21.016Z,100.00
2024-02-11T03:37:48.762Z,100.00
2024-02-11T03:40:18.726Z,100.00
2024-02-11T03:42:46.740Z,100.00
2024-02-11T03:45:17.049Z,100.00
2024-02-11T03:47:44.740Z,100.00
2024-02-11T03:50:15.483Z,100.00
2024-02-11T03:52:43.517Z,100.00
2024-02-11T03:55:12.476Z,100.00
2024-02-11T03:57:40.639Z,100.00
2024-02-11T04:00:19.962Z,100.00
2024-02-11T04:02:47.459Z,100.00
2024-02-11T04:05:17.792Z,100.00
2024-02-11T04:07:48.013Z,100.00
2024-02-11T04:10:21.203Z,100.00
2024-02-11T04:12:49.075Z,100.00
2024-02-11T04:15:16.785Z,100.00
2024-02-11T04:17:49.859Z,100.00
2024-02-11T04:20:26.335Z,100.00
2024-02-11T04:23:02.545Z,100.00
2024-02-11T04:25:35.687Z,100.00
2024-02-11T04:28:10.551Z,100.00
2024-02-11T04:30:39.972Z,100.00
2024-02-11T04:33:08.953Z,100.00
2024-02-11T04:35:37.317Z,100.00
2024-02-11T04:38:12.430Z,100.00
2024-02-11T04:40:40.620Z,100.00
2024-02-11T04:43:08.412Z,100.00
2024-02-11T04:45:38.461Z,100.00
2024-02-11T04:48:06.595Z,100.00
2024-02-11T04:50:36.482Z,100.00
2024-02-11T04:53:05.132Z,100.00
2024-02-11T04:55:41.956Z,100.00
2024-02-11T04:58:21.101Z,100.00
2024-02-11T05:00:52.718Z,100.00
2024-02-11T05:03:21.313Z,100.00
2024-02-11T05:05:53.723Z,100.00
2024-02-11T05:08:25.244Z,100.00
2024-02-11T05:10:55.889Z,100.00
2024-02-11T05:13:25.517Z,100.00
2024-02-11T05:15:54.740Z,100.00
2024-02-11T05:18:22.396Z,100.00
2024-02-11T05:20:50.070Z,100.00
2024-02-11T05:23:18.303Z,100.00
2024-02-11T05:25:46.476Z,100.00
2024-02-11T05:28:17.607Z,100.00
2024-02-11T05:30:50.581Z,100.00
2024-02-11T05:33:20.834Z,100.00
2024-02-11T05:35:51.205Z,100.00
2024-02-11T05:38:26.035Z,100.00
2024-02-11T05:40:59.349Z,100.00
2024-02-11T05:43:27.985Z,100.00
2024-02-11T05:45:56.479Z,100.00
2024-02-11T05:48:24.574Z,100.00
2024-02-11T05:50:52.420Z,100.00
2024-02-11T05:53:20.108Z,100.00
2024-02-11T05:55:50.471Z,100.00
2024-02-11T05:58:18.001Z,100.00
2024-02-11T06:00:45.581Z,100.00
2024-02-11T06:03:13.418Z,100.00
2024-02-11T06:05:43.256Z,100.00
2024-02-11T06:08:11.988Z,100.00
2024-02-11T06:10:41.298Z,100.00
2024-02-11T06:13:10.430Z,100.00
2024-02-11T06:15:39.754Z,100.00
2024-02-11T06:18:11.247Z,100.00
2024-02-11T06:20:40.732Z,100.00
2024-02-11T06:23:09.180Z,100.00
2024-02-11T06:25:37.270Z,100.00
2024-02-11T06:28:05.028Z,100.00
2024-02-11T06:30:32.404Z,100.00
2024-02-11T06:32:59.929Z,100.00
2024-02-11T06:35:28.764Z,100.00
2024-02-11T06:37:57.937Z,100.00
2024-02-11T06:40:27.666Z,100.00
2024-02-11T06:42:56.337Z,100.00
2024-02-11T06:45:24.687Z,100.00
2024-02-11T06:47:54.317Z,100.00
2024-02-11T06:50:23.194Z,100.00
2024-02-11T06:52:51.667Z,100.00
2024-02-11T06:55:21.424Z,100.00
2024-02-11T06:57:50.022Z,100.00
2024-02-11T07:00:20.608Z,100.00
2024-02-11T07:02:55.092Z,99.68
2024-02-11T07:05:24.253Z,99.21
2024-02-11T07:07:54.730Z,96.93
2024-02-11T07:10:24.614Z,96.78
2024-02-11T07:12:52.071Z,95.32
2024-02-11T07:15:20.916Z,93.97
2024-02-11T07:17:48.565Z,90.87
2024-02-11T07:20:17.444Z,91.50
2024-02-11T07:22:47.066Z,90.09
2024-02-11T07:25:18.555Z,88.00
2024-02-11T07:27:47.052Z,88.35
2024-02-11T07:30:15.221Z,86.85
2024-02-11T07:32:44.617Z,86.72
2024-02-11T07:35:14.543Z,86.51
2024-02-11T07:37:42.938Z,83.82
2024-02-11T07:40:16.570Z,87.62
2024-02-11T07:42:44.474Z,88.14
2024-02-11T07:45:17.167Z,89.53
2024-02-11T07:47:49.883Z,91.14
2024-02-11T07:50:19.161Z,93.59
2024-02-11T07:52:48.932Z,91.20
2024-02-11T07:55:17.470Z,90.17
2024-02-11T07:57:47.752Z,83.96
2024-02-11T08:00:17.071Z,88.12
2024-02-11T08:02:44.585Z,86.73
2024-02-11T08:05:13.326Z,86.86
2024-02-11T08:07:41.061Z,84.54
2024-02-11T08:10:09.107Z,85.84
2024-02-11T08:12:36.575Z,85.80
2024-02-11T08:15:04.510Z,84.87
2024-02-11T08:17:32.188Z,85.50
2024-02-11T08:19:59.831Z,87.10
2024-02-11T08:22:27.228Z,84.86
2024-02-11T08:24:54.456Z,85.21
2024-02-11T08:27:21.771Z,85.47
2024-02-11T08:29:50.487Z,84.90
2024-02-11T08:32:17.887Z,87.09
2024-02-11T08:34:45.385Z,85.43
2024-02-11T08:37:13.080Z,84.06
2024-02-11T08:39:41.391Z,85.13
2024-02-11T08:42:10.988Z,85.02
2024-02-11T08:44:38.217Z,85.21
2024-02-11T08:47:10.169Z,85.46
2024-02-11T08:49:38.029Z,84.91
2024-02-11T08:52:05.926Z,86.58
2024-02-11T08:54:35.836Z,85.14
2024-02-11T08:57:04.133Z,83.11
2024-02-11T08:59:31.712Z,83.21
2024-02-11T09:02:00.932Z,84.64
2024-02-11T09:04:29.605Z,83.18
2024-02-11T09:06:58.040Z,82.29
2024-02-11T09:09:28.544Z,80.92
2024-02-11T09:11:59.270Z,84.57
2024-02-11T09:14:32.795Z,82.83
2024-02-11T09:17:01.258Z,81.67
2024-02-11T09:19:29.928Z,83.70
2024-02-11T09:22:00.556Z,83.61
2024-02-11T09:24:28.072Z,83.07
2024-02-11T09:26:55.419Z,80.73
2024-02-11T09:29:23.332Z,80.39
2024-02-11T09:31:53.220Z,81.41
2024-02-11T09:34:22.661Z,82.94
2024-02-11T09:36:50.714Z,83.16
2024-02-11T09:39:18.089Z,81.54
2024-02-11T09:41:46.846Z,81.69
2024-02-11T09:44:21.112Z,82.78
2024-02-11T09:46:52.966Z,85.42
2024-02-11T09:49:22.998Z,83.17
2024-02-11T09:51:51.971Z,83.19
2024-02-11T09:54:22.630Z,82.76
2024-02-11T09:56:50.025Z,83.46
2024-02-11T09:59:17.837Z,84.16
2024-02-11T10:01:45.625Z,84.03
2024-02-11T10:04:16.450Z,82.57
2024-02-11T10:06:44.373Z,83.95
2024-02-11T10:09:13.477Z,81.79
2024-02-11T10:11:41.190Z,82.93
2024-02-11T10:14:14.471Z,84.01
2024-02-11T10:16:43.334Z,85.34
2024-02-11T10:19:11.366Z,85.52
2024-02-11T10:21:39.166Z,84.73
2024-02-11T10:24:07.081Z,84.79
2024-02-11T10:26:35.363Z,84.20
2024-02-11T10:29:06.292Z,84.24
2024-02-11T10:31:33.829Z,83.61
2024-02-11T10:34:01.466Z,83.52
2024-02-11T10:36:29.089Z,84.00
2024-02-11T10:38:57.531Z,84.28
2024-02-11T10:41:25.213Z,83.93
2024-02-11T10:43:53.631Z,84.26
2024-02-11T10:46:21.875Z,81.85
2024-02-11T10:48:50.026Z,82.54
2024-02-11T10:51:24.805Z,80.97
2024-02-11T10:54:02.399Z,83.88
2024-02-11T10:56:31.390Z,82.77
2024-02-11T10:59:32.680Z,81.91
2024-02-11T11:02:01.124Z,79.18
2024-02-11T11:04:29.894Z,79.94
2024-02-11T11:06:58.065Z,81.86
2024-02-11T11:09:26.395Z,83.95
2024-02-11T11:11:53.897Z,83.60
2024-02-11T11:14:23.142Z,84.20
2024-02-11T11:16:50.844Z,83.65
2024-02-11T11:19:19.581Z,85.46
2024-02-11T11:21:57.389Z,81.96
2024-02-11T11:24:24.925Z,83.61
2024-02-11T11:26:54.076Z,81.71
2024-02-11T11:29:28.918Z,80.89
2024-02-11T11:31:59.832Z,82.21
2024-02-11T11:34:31.863Z,82.72
2024-02-11T11:37:14.365Z,82.81
2024-02-11T11:39:44.803Z,82.67
2024-02-11T11:42:15.691Z,83.60
2024-02-11T11:44:43.223Z,82.29
2024-02-11T11:47:10.623Z,81.71
2024-02-11T11:49:38.554Z,82.30
2024-02-11T11:52:09.643Z,83.07
2024-02-11T11:54:37.380Z,82.94
2024-02-11T11:57:06.890Z,83.69
2024-02-11T11:59:34.127Z,84.11
2024-02-11T12:02:01.687Z,84.48
2024-02-11T12:04:30.871Z,83.83
2024-02-11T12:06:58.228Z,80.21
2024-02-11T12:09:26.859Z,81.63
2024-02-11T12:11:55.606Z,82.82
2024-02-11T12:14:23.966Z,82.83
2024-02-11T12:16:51.880Z,83.56
2024-02-11T12:19:20.419Z,82.30
2024-02-11T12:21:49.640Z,82.81
2024-02-11T12:24:17.159Z,82.15
2024-02-11T12:26:44.594Z,82.85
2024-02-11T12:29:11.915Z,83.18
2024-02-11T12:31:41.822Z,83.72
2024-02-11T12:34:10.932Z,83.05
2024-02-11T12:36:39.133Z,83.99
2024-02-11T12:39:06.483Z,83.53
2024-02-11T12:41:37.908Z,84.07
2024-02-11T12:44:08.483Z,84.85
2024-02-11T12:46:36.749Z,86.71
2024-02-11T12:49:04.209Z,86.78
2024-02-11T12:51:31.698Z,89.41
2024-02-11T12:53:59.059Z,86.38
2024-02-11T12:56:27.495Z,87.88
2024-02-11T12:58:55.067Z,89.26
2024-02-11T13:01:24.136Z,91.83
2024-02-11T13:03:51.619Z,90.53
2024-02-11T13:06:19.193Z,92.10
2024-02-11T13:08:48.456Z,94.35
2024-02-11T13:11:22.683Z,92.44
2024-02-11T13:13:52.362Z,93.82
2024-02-11T13:16:21.380Z,95.72
2024-02-11T13:18:49.156Z,95.45
2024-02-11T13:21:16.650Z,95.85
2024-02-11T13:23:43.934Z,100.00
2024-02-11T13:26:11.424Z,100.00
2024-02-11T13:28:40.329Z,100.00
2024-02-11T13:31:15.295Z,100.00
2024-02-11T13:33:51.481Z,100.00
2024-02-11T13:36:18.976Z,100.00
2024-02-11T13:38:46.322Z,100.00
2024-02-11T13:41:14.124Z,100.00
2024-02-11T13:43:41.852Z,100.00
2024-02-11T13:46:14.658Z,100.00
2024-02-11T13:48:43.706Z,100.00
2024-02-11T13:51:11.959Z,100.00
2024-02-11T13:53:39.658Z,100.00
2024-02-11T13:56:08.510Z,100.00
2024-02-11T13:58:43.013Z,100.00
2024-02-11T14:01:11.603Z,100.00
2024-02-11T14:03:43.889Z,100.00
2024-02-11T14:06:16.268Z,100.00
2024-02-11T14:08:47.271Z,100.00
2024-02-11T14:11:15.838Z,100.00
2024-02-11T14:13:43.601Z,100.00
2024-02-11T14:16:11.818Z,100.00
2024-02-11T14:18:40.095Z,100.00
2024-02-11T14:21:09.743Z,100.00
2024-02-11T14:23:40.096Z,100.00
2024-02-11T14:26:11.118Z,100.00
2024-02-11T14:28:38.941Z,100.00
2024-02-11T14:31:06.459Z,100.00
2024-02-11T14:33:33.947Z,100.00
2024-02-11T14:36:01.698Z,100.00
2024-02-11T14:38:30.518Z,100.00
2024-02-11T14:40:59.137Z,100.00
2024-02-11T14:43:27.053Z,100.00
2024-02-11T14:45:54.414Z,100.00
2024-02-11T14:48:22.642Z,100.00
2024-02-11T14:50:50.175Z,100.00
2024-02-11T14:53:17.805Z,100.00
2024-02-11T14:55:45.350Z,100.00
2024-02-11T14:58:15.593Z,100.00
2024-02-11T15:00:43.632Z,100.00
2024-02-11T15:03:11.366Z,100.00
2024-02-11T15:05:39.341Z,100.00
2024-02-11T15:08:08.079Z,100.00
2024-02-11T15:10:35.563Z,100.00
2024-02-11T15:13:04.572Z,100.00
2024-02-11T15:15:32.299Z,100.00
2024-02-11T15:17:59.700Z,100.00
2024-02-11T15:20:27.191Z,100.00
2024-02-11T15:22:54.704Z,100.00
2024-02-11T15:25:22.203Z,100.00
2024-02-11T15:27:49.647Z,100.00
2024-02-11T15:30:17.221Z,100.00
2024-02-11T15:32:45.878Z,100.00
2024-02-11T15:35:15.105Z,100.00
2024-02-11T15:37:42.486Z,100.00
2024-02-11T15:40:11.622Z,100.00
2024-02-11T15:42:39.154Z,100.00
2024-02-11T15:45:07.696Z,100.00
2024-02-11T15:47:37.344Z,100.00
2024-02-11T15:50:06.210Z,100.00
2024-02-11T15:52:34.113Z,100.00
2024-02-11T15:55:01.806Z,100.00
2024-02-11T15:57:30.385Z,100.00
2024-02-11T15:59:58.188Z,100.00
2024-02-11T16:02:29.633Z,100.00
2024-02-11T16:04:57.161Z,100.00
2024-02-11T16:07:25.361Z,100.00
2024-02-11T16:09:52.903Z,100.00
2024-02-11T16:12:20.829Z,100.00
2024-02-11T16:14:48.266Z,100.00
2024-02-11T16:17:15.699Z,100.00
2024-02-11T16:19:43.341Z,100.00
2024-02-11T16:22:11.011Z,100.00
2024-02-11T16:24:38.947Z,100.00
2024-02-11T16:27:07.180Z,100.00
2024-02-11T16:29:34.513Z,100.00
2024-02-11T16:32:01.958Z,100.00
2024-02-11T16:34:29.568Z,100.00
2024-02-11T16:36:57.128Z,100.00
2024-02-11T16:39:24.969Z,100.00
2024-02-11T16:41:53.303Z,100.00
2024-02-11T16:44:20.724Z,100.00
2024-02-11T16:46:48.197Z,100.00
2024-02-11T16:49:15.816Z,100.00
2024-02-11T16:51:45.858Z,100.00
2024-02-11T16:54:15.021Z,100.00
2024-02-11T16:56:44.275Z,100.00
2024-02-11T16:59:11.916Z,100.00
2024-02-11T17:01:39.298Z,100.00
2024-02-11T17:04:07.755Z,100.00
2024-02-11T17:06:36.100Z,100.00
2024-02-11T17:09:06.535Z,100.00
2024-02-11T17:11:34.671Z,100.00
2024-02-11T17:14:02.902Z,100.00
2024-02-11T17:16:31.057Z,100.00
2024-02-11T17:18:58.890Z,100.00
2024-02-11T17:21:26.448Z,100.00
2024-02-11T17:23:56.712Z,100.00
2024-02-11T17:26:25.250Z,100.00
2024-02-11T17:28:56.660Z,100.00
2024-02-11T17:31:27.685Z,100.00
2024-02-11T17:33:56.532Z,100.00
2024-02-11T17:36:26.099Z,100.00
2024-02-11T17:38:54.547Z,100.00
2024-02-11T17:41:22.609Z,100.00
2024-02-11T17:43:50.313Z,100.00
2024-02-11T17:46:19.012Z,100.00
2024-02-11T17:48:51.325Z,100.00
2024-02-11T17:51:20.640Z,100.00
2024-02-11T17:53:50.892Z,100.00
2024-02-11T17:56:18.985Z,100.00
2024-02-11T17:58:48.319Z,100.00
2024-02-11T18:01:18.708Z,100.00
2024-02-11T18:03:47.076Z,100.00
2024-02-11T18:06:16.121Z,100.00
2024-02-11T18:08:46.992Z,100.00
2024-02-11T18:11:14.796Z,100.00
2024-02-11T18:13:42.260Z,100.00
2024-02-11T18:16:10.105Z,100.00
2024-02-11T18:18:39.394Z,100.00
2024-02-11T18:21:07.159Z,100.00
2024-02-11T18:23:37.142Z,100.00
2024-02-11T18:26:09.552Z,100.00
2024-02-11T18:28:43.431Z,100.00
2024-02-11T18:31:12.584Z,100.00
2024-02-11T18:33:41.140Z,100.00
2024-02-11T18:36:13.613Z,100.00
2024-02-11T18:38:42.261Z,100.00
2024-02-11T18:41:09.915Z,100.00
2024-02-11T18:43:37.367Z,100.00
2024-02-11T18:46:05.629Z,100.00
2024-02-11T18:48:33.192Z,100.00
2024-02-11T18:51:06.738Z,100.00
2024-02-11T18:53:34.372Z,100.00
2024-02-11T18:56:01.849Z,100.00
2024-02-11T18:58:32.707Z,100.00
2024-02-11T19:01:01.365Z,100.00
2024-02-11T19:03:29.363Z,100.00
2024-02-11T19:05:56.967Z,100.00
2024-02-11T19:08:24.620Z,100.00
2024-02-11T19:10:52.810Z,100.00
2024-02-11T19:13:20.474Z,100.00
2024-02-11T19:15:48.448Z,100.00
2024-02-11T19:18:15.959Z,100.00
2024-02-11T19:20:43.983Z,100.00
2024-02-11T19:23:12.560Z,100.00
2024-02-11T19:25:40.083Z,100.00
2024-02-11T19:28:08.845Z,100.00
2024-02-11T19:30:36.347Z,100.00
2024-02-11T19:33:04.336Z,100.00
2024-02-11T19:35:32.480Z,100.00
2024-02-11T19:37:59.985Z,100.00
2024-02-11T19:40:28.416Z,100.00
2024-02-11T19:42:55.836Z,100.00
2024-02-11T19:45:23.270Z,100.00
2024-02-11T19:47:50.775Z,100.00
2024-02-11T19:50:19.084Z,100.00
2024-02-11T19:52:46.832Z,100.00
2024-02-11T19:55:14.900Z,100.00
2024-02-11T19:57:42.670Z,100.00
2024-02-11T20:00:12.957Z,100.00
2024-02-11T20:02:44.156Z,100.00
2024-02-11T20:05:14.686Z,100.00
2024-02-11T20:07:44.780Z,100.00
2024-02-11T20:10:12.731Z,100.00
2024-02-11T20:12:42.797Z,100.00
2024-02-11T20:15:18.996Z,100.00
2024-02-11T20:17:46.898Z,100.00
2024-02-11T20:20:15.677Z,100.00
2024-02-11T20:22:48.198Z,100.00
2024-02-11T20:25:15.848Z,100.00
2024-02-11T20:27:44.708Z,100.00
2024-02-11T20:30:12.789Z,100.00
2024-02-11T20:32:41.188Z,100.00
2024-02-11T20:35:10.577Z,100.00
2024-02-11T20:37:41.544Z,100.00
2024-02-11T20:40:14.331Z,100.00
2024-02-11T20:42:42.111Z,100.00
2024-02-11T20:45:10.454Z,100.00
2024-02-11T20:47:40.739Z,100.00
2024-02-11T20:50:09.894Z,100.00
2024-02-11T20:52:38.282Z,100.00
2024-02-11T20:55:06.405Z,100.00
2024-02-11T20:57:36.674Z,100.00
2024-02-11T21:00:06.632Z,100.00
2024-02-11T21:02:34.004Z,100.00
2024-02-11T21:05:05.804Z,100.00
2024-02-11T21:07:33.625Z,100.00
2024-02-11T21:10:00.908Z,100.00
2024-02-11T21:12:29.256Z,100.00
2024-02-11T21:14:56.980Z,100.00
2024-02-11T21:17:26.137Z,100.00
2024-02-11T21:19:54.418Z,100.00
2024-02-11T21:22:24.072Z,100.00
2024-02-11T21:24:52.719Z,100.00
2024-02-11T21:27:21.867Z,100.00
2024-02-11T21:29:49.694Z,100.00
2024-02-11T21:32:17.999Z,100.00
2024-02-11T21:34:48.682Z,100.00
2024-02-11T21:37:16.322Z,100.00
2024-02-11T21:39:44.254Z,100.00
2024-02-11T21:42:12.875Z,100.00
2024-02-11T21:44:42.021Z,100.00
2024-02-11T21:47:09.714Z,100.00
2024-02-11T21:49:37.323Z,100.00
2024-02-11T21:52:05.222Z,100.00
2024-02-11T21:54:32.745Z,100.00
2024-02-11T21:57:00.072Z,100.00
2024-02-11T21:59:27.983Z,100.00
2024-02-11T22:01:55.407Z,100.00
2024-02-11T22:04:22.880Z,100.00
2024-02-11T22:06:51.076Z,100.00
2024-02-11T22:09:19.937Z,100.00
2024-02-11T22:11:47.242Z,100.00
2024-02-11T22:14:14.898Z,100.00
2024-02-11T22:16:42.208Z,100.00
2024-02-11T22:19:09.507Z,100.00
2024-02-11T22:21:37.079Z,100.00
2024-02-11T22:24:05.138Z,100.00
2024-02-11T22:26:32.793Z,100.00
2024-02-11T22:29:00.334Z,100.00
2024-02-11T22:31:28.057Z,100.00
2024-02-11T22:33:55.516Z,100.00
2024-02-11T22:36:26.900Z,100.00
2024-02-11T22:38:54.645Z,100.00
2024-02-11T22:41:22.150Z,100.00
2024-02-11T22:43:50.122Z,100.00
2024-02-11T22:46:18.047Z,100.00
2024-02-11T22:48:45.537Z,100.00
2024-02-11T22:51:13.140Z,100.00
2024-02-11T22:53:41.159Z,100.00
2024-02-11T22:56:08.576Z,100.00
2024-02-11T22:58:35.907Z,100.00
2024-02-11T23:01:03.471Z,100.00
2024-02-11T23:03:31.281Z,100.00
2024-02-11T23:05:58.932Z,100.00
2024-02-11T23:08:27.259Z,100.00
2024-02-11T23:10:55.063Z,100.00
2024-02-11T23:13:23.410Z,100.00
2024-02-11T23:15:55.920Z,100.00
2024-02-11T23:18:23.457Z,100.00
2024-02-11T23:20:51.823Z,100.00
2024-02-11T23:23:19.356Z,100.00
2024-02-11T23:25:46.887Z,100.00
2024-02-11T23:28:20.713Z,100.00
2024-02-11T23:30:49.319Z,100.00
2024-02-11T23:33:16.820Z,100.00
2024-02-11T23:35:45.184Z,100.00
2024-02-11T23:38:12.717Z,100.00
2024-02-11T23:40:42.405Z,100.00
2024-02-11T23:43:10.220Z,100.00
2024-02-11T23:45:37.893Z,100.00
2024-02-11T23:48:09.945Z,100.00
2024-02-11T23:50:38.773Z,100.00
2024-02-11T23:53:08.057Z,100.00
2024-02-11T23:55:39.317Z,100.00
2024-02-11T23:58:06.738Z,100.00
